Airfield :
LOGIN :

Register | Disclaimer

   EN    FR    IT 

 










Legend :    VFR   Marginal VFR   IFR   Intensive IFR   Very Intensive IFR
Visi :
Ceiling :
>= 8 km
>= 3000ft
5 to 8 km
1000 to 3000 ft
1500m to 5 km
500 to 1000 ft
800 to 1500m
200 to 500 ft
< 800m
< 200 ft
Symbols :   Thunderstorms  Fog  Heavy snow  Heavy precipitations  Wind > 20 kt
SIGMETs :     Misc.  Thunderstorms  Icing  Turbulence  Mountain Waves  Volcanic Ashes







- Airport Elevation : 364 ft
- Download approach charts


LFAQ - Albert Bray

CURRENT METAR :
  • 201230Z AUTO 01009KT 9999 BKN026 OVC034 17/12 Q1011 NOSIG

EXPIRED METARs :
  • 201200Z AUTO 01007KT 330V030 9999 OVC025 16/11 Q1011 NOSIG
  • 201130Z AUTO 36007KT 310V040 9999 BKN024 OVC029 16/11 Q1011 NOSIG
  • 201100Z AUTO 34010KT 9999 OVC023 15/11 Q1011 NOSIG
  • 201030Z AUTO 33010KT 9999 OVC023 15/10 Q1010 NOSIG
  • 201000Z AUTO 33009KT 300V360 9999 OVC019 15/10 Q1010 NOSIG

TAF TAF LFAQ
Valid from the 20 at 12:00 until the 20 at 21:00 UTC


201100Z 2012/2021 33010KT 9999 BKN020
No reported NOTAMs for that airfield.



MET'MAP, your aeronautical weather chart ! - Copyright ORBIFLY December 2007 - Disclaimer

ORBIFLY MET'MAP TEAM :

Programming & Development : Alexandra Zaïnal
Concept & Development : Baudouin d'Aumeries
Co-Development & Prog : Marc-Olivier Méhu
Technical & hardware support : Manuel Goepfert

Contact : metmap@orbifly.com




SOURCES & CREDITS :

   NOAA